createdAt,value
2022-10-28T15:44:24.098Z,956.70
2022-10-28T15:45:24.094Z,956.70
2022-10-28T15:46:24.051Z,956.72
2022-10-28T15:47:24.025Z,956.71
2022-10-28T15:48:24.014Z,956.70
2022-10-28T15:49:23.989Z,956.71
2022-10-28T15:50:23.970Z,956.74
2022-10-28T15:51:24.014Z,956.78
2022-10-28T15:52:23.972Z,956.72
2022-10-28T15:53:23.948Z,956.74
2022-10-28T15:54:23.951Z,956.69
2022-10-28T15:55:35.544Z,956.73
2022-10-28T15:56:24.904Z,956.75
2022-10-28T15:57:32.993Z,956.76
2022-10-28T15:58:23.883Z,956.73
2022-10-28T15:59:23.893Z,956.73
2022-10-28T16:00:23.937Z,956.67
2022-10-28T16:01:24.136Z,956.76
2022-10-28T16:02:24.985Z,956.76
2022-10-28T16:03:23.879Z,956.68
2022-10-28T16:04:23.838Z,956.72
2022-10-28T16:05:25.425Z,956.74
2022-10-28T16:06:23.830Z,956.75
2022-10-28T16:07:23.833Z,956.76
2022-10-28T16:08:23.771Z,956.72
2022-10-28T16:09:23.763Z,956.72
2022-10-28T16:10:23.747Z,956.74
2022-10-28T16:11:23.741Z,956.71
2022-10-28T16:12:23.763Z,956.69
2022-10-28T16:13:23.719Z,956.73
2022-10-28T16:14:23.706Z,956.74
2022-10-28T16:15:23.694Z,956.77
2022-10-28T16:16:23.709Z,956.77
2022-10-28T16:17:23.738Z,956.78
2022-10-28T16:18:23.675Z,956.76
2022-10-28T16:19:23.664Z,956.74
2022-10-28T16:20:23.734Z,956.78
2022-10-28T16:21:23.624Z,956.74
2022-10-28T16:22:24.055Z,956.78
2022-10-28T16:23:23.604Z,956.76
2022-10-28T16:24:23.611Z,956.77
2022-10-28T16:25:23.583Z,956.74
2022-10-28T16:26:23.570Z,956.78
2022-10-28T16:27:23.558Z,956.75
2022-10-28T16:28:23.568Z,956.77
2022-10-28T16:29:23.535Z,956.76
2022-10-28T16:30:23.564Z,956.76
2022-10-28T16:31:23.518Z,956.78
2022-10-28T16:32:23.523Z,956.82
2022-10-28T16:33:23.496Z,956.77
2022-10-28T16:34:23.506Z,956.77
2022-10-28T16:35:23.470Z,956.77
2022-10-28T16:36:23.477Z,956.83
2022-10-28T16:37:23.474Z,956.79
2022-10-28T16:38:23.433Z,956.73
2022-10-28T16:39:23.428Z,956.77
2022-10-28T16:41:24.404Z,956.75
2022-10-28T16:42:23.433Z,956.78
2022-10-28T16:43:23.386Z,956.83
2022-10-28T16:44:23.366Z,956.84
2022-10-28T16:45:23.364Z,956.85
2022-10-28T16:46:23.345Z,956.83
2022-10-28T16:47:23.454Z,956.80
2022-10-28T16:48:23.342Z,956.81
2022-10-28T16:49:23.322Z,956.83
2022-10-28T16:50:23.309Z,956.83
2022-10-28T16:51:23.289Z,956.82
2022-10-28T16:52:23.296Z,956.78
2022-10-28T16:53:23.273Z,956.84
2022-10-28T16:54:23.280Z,956.80
2022-10-28T16:55:23.245Z,956.83
2022-10-28T16:56:23.306Z,956.83
2022-10-28T16:58:26.106Z,956.88
2022-10-28T16:59:23.215Z,956.87
2022-10-28T17:00:24.953Z,956.88
2022-10-28T17:01:23.327Z,956.89
2022-10-28T17:02:23.325Z,956.89
2022-10-28T17:03:23.165Z,956.87
2022-10-28T17:04:23.161Z,956.89
2022-10-28T17:05:23.154Z,956.90
2022-10-28T17:06:23.167Z,956.90
2022-10-28T17:07:23.123Z,956.92
2022-10-28T17:08:49.062Z,956.91
2022-10-28T17:09:24.111Z,956.91
2022-10-28T17:10:23.077Z,956.94
2022-10-28T17:11:23.116Z,956.91
2022-10-28T17:12:23.066Z,956.90
2022-10-28T17:13:23.092Z,956.92
2022-10-28T17:14:23.092Z,956.91
2022-10-28T17:15:23.024Z,956.95
2022-10-28T17:16:23.018Z,956.92
2022-10-28T17:17:23.049Z,956.95
2022-10-28T17:18:23.039Z,956.93
2022-10-28T17:19:23.001Z,956.96
2022-10-28T17:20:22.978Z,956.96
2022-10-28T17:21:22.971Z,956.92
2022-10-28T17:22:22.946Z,956.94
2022-10-28T17:23:22.938Z,956.95
2022-10-28T17:24:22.954Z,956.95
2022-10-28T17:25:22.933Z,956.97
2022-10-28T17:26:22.900Z,956.94
2022-10-28T17:27:22.907Z,956.98
2022-10-28T17:28:22.903Z,956.96
2022-10-28T17:29:22.872Z,956.96
2022-10-28T17:30:22.923Z,956.98
2022-10-28T17:31:25.118Z,956.98
2022-10-28T17:32:22.843Z,956.96
2022-10-28T17:33:22.848Z,956.98
2022-10-28T17:34:22.899Z,956.99
2022-10-28T17:35:22.802Z,956.98
2022-10-28T17:36:22.820Z,956.98
2022-10-28T17:37:22.850Z,957.01
2022-10-28T17:38:22.767Z,957.05
2022-10-28T17:39:26.156Z,957.05
2022-10-28T17:40:22.749Z,957.04
2022-10-28T17:41:22.747Z,957.07
2022-10-28T17:43:33.136Z,957.08
2022-10-28T17:44:33.083Z,957.09
2022-10-28T17:45:33.131Z,957.12
2022-10-28T17:46:33.035Z,957.08
2022-10-28T17:47:32.999Z,957.11
2022-10-28T17:48:33.007Z,957.05
2022-10-28T17:49:32.998Z,957.04
2022-10-28T17:50:33.026Z,957.02
2022-10-28T17:51:33.062Z,957.04
2022-10-28T17:52:35.764Z,957.00
2022-10-28T17:53:33.912Z,957.02
2022-10-28T17:54:32.878Z,957.00
2022-10-28T17:55:32.941Z,957.00
2022-10-28T17:56:42.841Z,956.95
2022-10-28T17:57:33.094Z,956.94
2022-10-28T17:58:33.032Z,956.94
2022-10-28T17:59:32.956Z,956.99
2022-10-28T18:00:32.999Z,956.92
2022-10-28T18:01:33.015Z,956.93
2022-10-28T18:02:32.936Z,956.91
2022-10-28T18:03:37.245Z,956.94
2022-10-28T18:04:33.773Z,956.92
2022-10-28T18:05:32.738Z,956.94
2022-10-28T18:06:32.735Z,956.96
2022-10-28T18:07:32.741Z,956.95
2022-10-28T18:08:32.769Z,956.92
2022-10-28T18:09:32.699Z,956.95
2022-10-28T18:10:32.681Z,956.93
2022-10-28T18:11:32.727Z,956.91
2022-10-28T18:12:32.680Z,956.91
2022-10-28T18:13:32.696Z,956.93
2022-10-28T18:14:32.634Z,956.91
2022-10-28T18:15:32.626Z,956.88
2022-10-28T18:16:32.682Z,956.90
2022-10-28T18:17:32.662Z,956.90
2022-10-28T18:18:32.601Z,956.88
2022-10-28T18:19:32.609Z,956.84
2022-10-28T18:20:32.588Z,956.84
2022-10-28T18:21:32.580Z,956.80
2022-10-28T18:22:32.553Z,956.85
2022-10-28T18:23:32.628Z,956.82
2022-10-28T18:24:32.562Z,956.87
2022-10-28T18:25:32.519Z,956.79
2022-10-28T18:26:32.601Z,956.78
2022-10-28T18:27:32.518Z,956.79
2022-10-28T18:28:32.484Z,956.83
2022-10-28T18:29:32.477Z,956.84
2022-10-28T18:30:32.512Z,956.82
2022-10-28T18:31:32.475Z,956.82
2022-10-28T18:32:32.470Z,956.84
2022-10-28T18:33:32.470Z,956.87
2022-10-28T18:34:32.489Z,956.82
2022-10-28T18:35:32.486Z,956.77
2022-10-28T18:36:32.397Z,956.78
2022-10-28T18:37:32.402Z,956.75
2022-10-28T18:38:32.380Z,956.78
2022-10-28T18:39:32.368Z,956.79
2022-10-28T18:40:32.376Z,956.81
2022-10-28T18:41:32.424Z,956.77
2022-10-28T18:42:32.332Z,956.77
2022-10-28T18:43:32.329Z,956.78
2022-10-28T18:44:32.330Z,956.76
2022-10-28T18:45:32.288Z,956.78
2022-10-28T18:46:32.314Z,956.78
2022-10-28T18:47:32.271Z,956.75
2022-10-28T18:48:32.331Z,956.74
2022-10-28T18:49:32.266Z,956.73
2022-10-28T18:50:32.277Z,956.74
2022-10-28T18:51:32.245Z,956.72
2022-10-28T18:52:32.243Z,956.69
2022-10-28T18:53:32.244Z,956.69
2022-10-28T18:54:32.212Z,956.66
2022-10-28T18:55:32.219Z,956.68
2022-10-28T18:56:32.166Z,956.69
2022-10-28T18:57:32.159Z,956.70
2022-10-28T18:58:32.180Z,956.69
2022-10-28T18:59:32.187Z,956.67
2022-10-28T19:00:32.167Z,956.68
2022-10-28T19:01:32.282Z,956.65
2022-10-28T19:02:32.357Z,956.65
2022-10-28T19:03:32.094Z,956.65
2022-10-28T19:04:32.123Z,956.70
2022-10-28T19:05:32.073Z,956.65
2022-10-28T19:06:32.345Z,956.58
2022-10-28T19:07:32.061Z,956.62
2022-10-28T19:08:32.085Z,956.60
2022-10-28T19:09:32.057Z,956.60
2022-10-28T19:10:32.020Z,956.60
2022-10-28T19:11:32.011Z,956.58
2022-10-28T19:12:31.992Z,956.60
2022-10-28T19:13:32.000Z,956.59
2022-10-28T19:14:31.969Z,956.59
2022-10-28T19:15:31.961Z,956.60
2022-10-28T19:16:31.960Z,956.59
2022-10-28T19:17:31.935Z,956.54
2022-10-28T19:18:31.964Z,956.54
2022-10-28T19:19:35.526Z,956.55
2022-10-28T19:20:32.903Z,956.51
2022-10-28T19:21:31.934Z,956.59
2022-10-28T19:22:31.974Z,956.52
2022-10-28T19:23:31.866Z,956.55
2022-10-28T19:24:33.679Z,956.53
2022-10-28T19:25:31.844Z,956.49
2022-10-28T19:26:32.008Z,956.52
2022-10-28T19:27:31.826Z,956.53
2022-10-28T19:28:31.864Z,956.49
2022-10-28T19:29:31.836Z,956.54
2022-10-28T19:30:31.804Z,956.52
2022-10-28T19:31:31.797Z,956.56
2022-10-28T19:32:31.807Z,956.57
2022-10-28T19:33:31.788Z,956.58
2022-10-28T19:34:31.743Z,956.58
2022-10-28T19:35:31.735Z,956.58
2022-10-28T19:36:31.786Z,956.63
2022-10-28T19:37:31.715Z,956.64
2022-10-28T19:38:31.713Z,956.68
2022-10-28T19:39:31.724Z,956.66
2022-10-28T19:40:31.766Z,956.67
2022-10-28T19:41:31.678Z,956.64
2022-10-28T19:42:31.663Z,956.62
2022-10-28T19:43:31.689Z,956.63
2022-10-28T19:44:31.668Z,956.60
2022-10-28T19:45:31.639Z,956.64
2022-10-28T19:46:31.606Z,956.66
2022-10-28T19:47:31.639Z,956.70
2022-10-28T19:48:31.601Z,956.72
2022-10-28T19:49:37.153Z,956.69
2022-10-28T19:50:32.558Z,956.71
2022-10-28T19:51:31.569Z,956.68
2022-10-28T19:52:31.544Z,956.70
2022-10-28T19:53:31.594Z,956.69
2022-10-28T19:54:31.543Z,956.72
2022-10-28T19:55:31.571Z,956.78
2022-10-28T19:56:31.503Z,956.80
2022-10-28T19:57:31.500Z,956.76
2022-10-28T19:58:31.484Z,956.80
2022-10-28T19:59:31.485Z,956.88
2022-10-28T20:00:31.476Z,956.92
2022-10-28T20:01:31.668Z,956.87
2022-10-28T20:02:31.535Z,956.88
2022-10-28T20:03:34.416Z,956.87
2022-10-28T20:04:31.434Z,956.86
2022-10-28T20:05:31.409Z,956.82
2022-10-28T20:06:31.455Z,956.81
2022-10-28T20:07:31.375Z,956.80
2022-10-28T20:08:31.384Z,956.80
2022-10-28T20:09:31.367Z,956.79
2022-10-28T20:10:31.339Z,956.79
2022-10-28T20:11:31.404Z,956.79
2022-10-28T20:12:31.327Z,956.79
2022-10-28T20:13:31.318Z,956.77
2022-10-28T20:14:31.420Z,956.74
2022-10-28T20:15:31.283Z,956.74
2022-10-28T20:16:31.282Z,956.76
2022-10-28T20:17:31.311Z,956.71
2022-10-28T20:18:31.269Z,956.73
2022-10-28T20:19:31.225Z,956.66
2022-10-28T20:20:31.243Z,956.71
2022-10-28T20:21:31.208Z,956.66
2022-10-28T20:22:31.263Z,956.69
2022-10-28T20:23:31.240Z,956.66
2022-10-28T20:24:31.202Z,956.70
2022-10-28T20:25:31.178Z,956.75
2022-10-28T20:26:31.166Z,956.73
2022-10-28T20:27:31.181Z,956.69
2022-10-28T20:28:31.140Z,956.69
2022-10-28T20:29:31.165Z,956.68
2022-10-28T20:30:31.121Z,956.73
2022-10-28T20:31:31.104Z,956.75
2022-10-28T20:32:31.084Z,956.76
2022-10-28T20:33:31.099Z,956.79
2022-10-28T20:34:31.065Z,956.80
2022-10-28T20:35:31.042Z,956.80
2022-10-28T20:36:31.064Z,956.80
2022-10-28T20:37:31.044Z,956.78
2022-10-28T20:38:31.010Z,956.80
2022-10-28T20:39:31.012Z,956.74
2022-10-28T20:40:31.028Z,956.80
2022-10-28T20:41:30.974Z,956.79
2022-10-28T20:42:30.988Z,956.78
2022-10-28T20:43:30.952Z,956.81
2022-10-28T20:44:30.963Z,956.77
2022-10-28T20:45:30.961Z,956.81
2022-10-28T20:46:30.925Z,956.82
2022-10-28T20:47:30.964Z,956.82
2022-10-28T20:48:30.904Z,956.81
2022-10-28T20:49:30.884Z,956.81
2022-10-28T20:50:30.879Z,956.90
2022-10-28T20:51:30.878Z,956.91
2022-10-28T20:52:30.904Z,956.92
2022-10-28T20:53:30.996Z,956.93
2022-10-28T20:54:30.845Z,956.96
2022-10-28T20:55:30.841Z,956.92
2022-10-28T20:56:30.835Z,956.92
2022-10-28T20:57:30.792Z,956.97
2022-10-28T20:58:30.805Z,956.90
2022-10-28T20:59:30.828Z,956.94
2022-10-28T21:00:30.766Z,956.96
2022-10-28T21:01:30.888Z,956.98
2022-10-28T21:02:31.047Z,956.99
2022-10-28T21:03:30.769Z,956.98
2022-10-28T21:04:30.721Z,957.01
2022-10-28T21:05:30.778Z,957.05
2022-10-28T21:06:30.693Z,957.03
2022-10-28T21:07:30.705Z,957.09
2022-10-28T21:08:39.618Z,957.16
2022-10-28T21:09:30.803Z,957.11
2022-10-28T21:10:30.809Z,957.18
2022-10-28T21:11:31.295Z,957.23
2022-10-28T21:12:30.693Z,957.21
2022-10-28T21:13:30.614Z,957.25
2022-10-28T21:14:30.653Z,957.24
2022-10-28T21:15:30.593Z,957.24
2022-10-28T21:16:30.601Z,957.35
2022-10-28T21:17:30.612Z,957.30
2022-10-28T21:18:30.561Z,957.32
2022-10-28T21:19:30.586Z,957.31
2022-10-28T21:20:30.569Z,957.30
2022-10-28T21:21:30.526Z,957.33
2022-10-28T21:22:30.521Z,957.31
2022-10-28T21:23:37.930Z,957.32
2022-10-28T21:24:30.503Z,957.35
2022-10-28T21:25:30.578Z,957.31
2022-10-28T21:26:30.555Z,957.29
2022-10-28T21:27:30.491Z,957.35
2022-10-28T21:28:30.482Z,957.33
2022-10-28T21:29:30.544Z,957.35
2022-10-28T21:30:30.648Z,957.34
2022-10-28T21:31:30.450Z,957.31
2022-10-28T21:32:30.462Z,957.29
2022-10-28T21:33:30.473Z,957.31
2022-10-28T21:34:30.440Z,957.29
2022-10-28T21:35:30.396Z,957.33
2022-10-28T21:36:30.378Z,1277.19
2022-10-28T21:37:30.371Z,1277.19
2022-10-28T21:38:30.359Z,1277.19
2022-10-28T21:39:30.376Z,1277.19
2022-10-28T21:40:30.396Z,1277.19
2022-10-28T21:41:30.376Z,1277.19
2022-10-28T21:42:30.333Z,1277.19
2022-10-28T21:43:30.359Z,1277.19
2022-10-28T21:44:30.279Z,1277.19
2022-10-28T21:45:30.295Z,1277.19
2022-10-28T21:46:30.300Z,1277.19
2022-10-28T21:47:30.237Z,1277.19
2022-10-28T21:48:30.230Z,1277.19
2022-10-28T21:49:30.216Z,1277.19
2022-10-28T21:50:30.237Z,1277.19
2022-10-28T21:51:30.217Z,1277.19
2022-10-28T21:52:30.184Z,1277.19
2022-10-28T21:53:30.201Z,1277.19
2022-10-28T21:54:30.192Z,1277.19
2022-10-28T21:55:42.083Z,1277.19
2022-10-28T21:56:31.136Z,1277.19
2022-10-28T21:57:37.689Z,1277.19
2022-10-28T21:58:30.125Z,1277.19
2022-10-28T21:59:30.088Z,1277.19
2022-10-28T22:00:30.084Z,1277.19
2022-10-28T22:01:30.258Z,1277.19
2022-10-28T22:02:30.217Z,1277.19
2022-10-28T22:03:30.083Z,1277.19
2022-10-28T22:04:30.034Z,1277.19
2022-10-28T22:05:30.029Z,1277.19
2022-10-28T22:06:30.018Z,1277.19
2022-10-28T22:07:30.036Z,1277.19
2022-10-28T22:08:29.985Z,1277.19
2022-10-28T22:09:33.532Z,1277.19
2022-10-28T22:10:30.982Z,1277.19
2022-10-28T22:11:29.976Z,1277.19
2022-10-28T22:12:29.947Z,1277.19
2022-10-28T22:13:29.948Z,1277.19
2022-10-28T22:14:29.929Z,1277.19
2022-10-28T22:15:29.917Z,1277.19
2022-10-28T22:16:29.923Z,1277.19
2022-10-28T22:17:29.886Z,1277.19
2022-10-28T22:18:29.877Z,1277.19
2022-10-28T22:19:29.885Z,1277.19
2022-10-28T22:20:29.864Z,1277.19
2022-10-28T22:21:29.881Z,1277.19
2022-10-28T22:22:29.849Z,1277.19
2022-10-28T22:23:29.855Z,1277.19
2022-10-28T22:24:29.814Z,1277.19
2022-10-28T22:25:29.798Z,1277.19
2022-10-28T22:26:29.806Z,1277.19
2022-10-28T22:27:29.780Z,1277.19
2022-10-28T22:28:29.771Z,1277.19
2022-10-28T22:29:29.754Z,1277.19
2022-10-28T22:30:29.770Z,1277.19
2022-10-28T22:31:29.758Z,1277.19
2022-10-28T22:32:29.723Z,1277.19
2022-10-28T22:33:29.825Z,1277.19
2022-10-28T22:34:29.700Z,1277.19
2022-10-28T22:35:29.690Z,1277.19
2022-10-28T22:36:29.704Z,1277.19
2022-10-28T22:37:29.671Z,1277.19
2022-10-28T22:38:29.651Z,1277.19
2022-10-28T22:39:29.656Z,1277.19
2022-10-28T22:40:29.638Z,1277.19
2022-10-28T22:41:29.637Z,1277.19
2022-10-28T22:42:29.612Z,1277.19
2022-10-28T22:43:29.593Z,1277.19
2022-10-28T22:44:29.597Z,1277.19
2022-10-28T22:45:29.575Z,1277.19
2022-10-28T22:46:29.585Z,1277.19
2022-10-28T22:47:29.546Z,1277.19
2022-10-28T22:48:29.543Z,1277.19
2022-10-28T22:49:29.527Z,1277.19
2022-10-28T22:50:29.543Z,1277.19
2022-10-28T22:51:29.521Z,1277.19
2022-10-28T22:52:29.514Z,1277.19
2022-10-28T22:53:29.482Z,1277.19
2022-10-28T22:54:29.479Z,1277.19
2022-10-28T22:55:29.492Z,1277.19
2022-10-28T22:56:29.473Z,1277.19
2022-10-28T22:57:29.438Z,1277.19
2022-10-28T22:58:29.446Z,1277.19
2022-10-28T22:59:29.422Z,1277.19
2022-10-28T23:00:29.407Z,1277.19
2022-10-28T23:01:29.537Z,1277.19
2022-10-28T23:02:29.504Z,1277.19
2022-10-28T23:03:29.398Z,1277.19
2022-10-28T23:04:29.359Z,1277.19
2022-10-28T23:05:29.356Z,1277.19
2022-10-28T23:06:29.359Z,1277.19
2022-10-28T23:07:29.344Z,1277.19
2022-10-28T23:08:29.319Z,1277.19
2022-10-28T23:09:29.349Z,1277.19
2022-10-28T23:10:29.295Z,1277.19
2022-10-28T23:11:29.297Z,1277.19
2022-10-28T23:12:29.271Z,1277.19
2022-10-28T23:13:29.343Z,1277.19
2022-10-28T23:14:29.292Z,1277.19
2022-10-28T23:15:29.237Z,1277.19
2022-10-28T23:16:29.223Z,1277.19
2022-10-28T23:17:29.214Z,1277.19
2022-10-28T23:18:29.194Z,1277.19
2022-10-28T23:19:29.209Z,1277.19
2022-10-28T23:20:29.189Z,1277.19
2022-10-28T23:21:29.168Z,1277.19
2022-10-28T23:22:29.151Z,1277.19
2022-10-28T23:23:29.144Z,1277.19
2022-10-28T23:24:29.156Z,1277.19
2022-10-28T23:25:29.160Z,1277.19
2022-10-28T23:26:29.111Z,1277.19
2022-10-28T23:27:29.109Z,1277.19
2022-10-28T23:28:29.089Z,1277.19
2022-10-28T23:29:29.086Z,1277.19
2022-10-28T23:30:29.059Z,1277.19
2022-10-28T23:31:29.057Z,1277.19
2022-10-28T23:32:29.040Z,1277.19
2022-10-28T23:33:29.023Z,1277.19
2022-10-28T23:34:29.043Z,1277.19
2022-10-28T23:35:29.003Z,1277.19
2022-10-28T23:36:28.991Z,1277.19
2022-10-28T23:37:28.977Z,1277.19
2022-10-28T23:38:28.964Z,1277.19
2022-10-28T23:39:28.992Z,1277.19
2022-10-28T23:40:28.946Z,1277.19
2022-10-28T23:41:28.951Z,1277.19
2022-10-28T23:42:28.919Z,1277.19
2022-10-28T23:43:28.931Z,1277.19
2022-10-28T23:44:28.924Z,1277.19
2022-10-28T23:45:28.889Z,1277.19
2022-10-28T23:46:32.284Z,1277.19
2022-10-28T23:47:29.864Z,1277.19
2022-10-28T23:48:28.855Z,1277.19
2022-10-28T23:49:28.866Z,1277.19
2022-10-28T23:50:28.846Z,1277.19
2022-10-28T23:51:28.821Z,1277.19
2022-10-28T23:52:28.810Z,1277.19
2022-10-28T23:54:28.791Z,1277.19
2022-10-28T23:55:28.810Z,1277.19
2022-10-28T23:56:28.761Z,1277.19
2022-10-28T23:57:28.756Z,1277.19
2022-10-28T23:58:28.752Z,1277.19
2022-10-28T23:59:28.744Z,1277.19
